Time;durP1;ratioP1;P1;durP2;ratioP2;P2;SDS_P1;SDS_P2;PMS_P1;PMS_P2;Temp;Humidity;BMP_temperature;BMP_pressure;BME280_temperature;BME280_humidity;BME280_pressure;Samples;Min_cycle;Max_cycle;Signal;HPM_P1;HPM_P2
2023/09/01 00:02:25;;;;;;;10.98;9.85;;;11.60;99.90;;;;;;5051701;28;20647;-69
2023/09/01 00:04:51;;;;;;;10.00;7.22;;;11.50;99.90;;;;;;5034348;28;20152;-69
2023/09/01 00:07:16;;;;;;;7.03;5.45;;;11.70;99.90;;;;;;5034324;28;20126;-69
2023/09/01 00:09:42;;;;;;;7.65;6.82;;;11.50;99.90;;;;;;5033845;28;20100;-69
2023/09/01 00:12:08;;;;;;;13.73;12.68;;;11.50;99.90;;;;;;5034835;28;20083;-69
2023/09/01 00:14:33;;;;;;;16.48;15.27;;;11.50;99.90;;;;;;5034049;28;20060;-69
2023/09/01 00:16:59;;;;;;;10.05;9.18;;;11.50;99.90;;;;;;5034459;28;20077;-69
2023/09/01 00:19:25;;;;;;;9.32;8.30;;;11.50;99.90;;;;;;5034555;28;20541;-69
2023/09/01 00:21:50;;;;;;;9.30;6.47;;;11.40;99.90;;;;;;5033927;28;20045;-69
2023/09/01 00:24:16;;;;;;;9.80;8.85;;;11.40;99.90;;;;;;5034608;28;20482;-69
2023/09/01 00:26:42;;;;;;;12.05;10.98;;;11.40;99.90;;;;;;5034082;28;20444;-69
2023/09/01 00:29:07;;;;;;;10.55;9.55;;;11.40;99.90;;;;;;5033678;28;20073;-69
2023/09/01 00:31:33;;;;;;;10.63;8.48;;;11.40;99.90;;;;;;5034351;28;20044;-69
2023/09/01 00:33:59;;;;;;;11.27;10.18;;;11.40;99.90;;;;;;5052433;28;20032;-69
2023/09/01 00:36:25;;;;;;;13.48;12.27;;;11.40;99.90;;;;;;5017163;28;20854;-69
2023/09/01 00:38:50;;;;;;;15.23;11.30;;;11.40;99.90;;;;;;5034176;28;20040;-69
2023/09/01 00:41:16;;;;;;;10.70;9.70;;;11.30;99.90;;;;;;5034795;28;20612;-69
2023/09/01 00:43:42;;;;;;;11.15;9.32;;;11.30;99.90;;;;;;5033200;28;20497;-69
2023/09/01 00:46:07;;;;;;;11.55;10.32;;;11.40;99.90;;;;;;5033713;28;20053;-69
2023/09/01 00:48:33;;;;;;;10.68;9.50;;;11.30;99.90;;;;;;5034316;28;20120;-67
2023/09/01 00:50:59;;;;;;;10.63;9.15;;;11.20;99.90;;;;;;5017499;28;20029;-67
2023/09/01 00:53:26;;;;;;;11.07;9.65;;;11.20;99.90;;;;;;5051926;28;20080;-67
2023/09/01 00:55:52;;;;;;;10.23;9.10;;;11.20;99.90;;;;;;5017322;28;20044;-67
2023/09/01 00:58:18;;;;;;;12.05;10.90;;;11.20;99.90;;;;;;5033357;28;20126;-67
2023/09/01 01:00:44;;;;;;;11.77;9.63;;;11.20;99.90;;;;;;5034327;28;20359;-69
2023/09/01 01:03:11;;;;;;;10.18;9.13;;;11.20;99.90;;;;;;5033639;28;20122;-69
2023/09/01 01:05:48;;;;;;;8.73;6.95;;;11.10;99.90;;;;;;5033070;28;20049;-69
2023/09/01 01:08:43;;;;;;;9.30;6.97;;;11.10;99.90;;;;;;5053517;28;20035;-69
2023/09/01 01:11:36;;;;;;;8.40;6.28;;;11.20;99.90;;;;;;5020578;28;20041;-69
2023/09/01 01:14:09;;;;;;;7.78;6.85;;;11.20;99.90;;;;;;5047541;28;20045;-69
2023/09/01 01:16:35;;;;;;;8.93;7.10;;;11.20;99.90;;;;;;5055524;28;20049;-69
2023/09/01 01:19:31;;;;;;;9.15;8.25;;;11.20;99.90;;;;;;5037511;28;20037;-69
2023/09/01 01:21:59;;;;;;;7.80;6.85;;;11.20;99.90;;;;;;5001466;28;20045;-69
2023/09/01 01:24:26;;;;;;;9.52;8.57;;;11.20;99.90;;;;;;5055696;28;20051;-69
2023/09/01 01:26:53;;;;;;;7.28;5.22;;;11.30;99.90;;;;;;5020366;28;20494;-69
2023/09/01 01:29:19;;;;;;;7.82;6.68;;;11.20;99.90;;;;;;5037521;28;20037;-69
2023/09/01 01:31:44;;;;;;;7.00;5.10;;;11.30;99.90;;;;;;5037001;28;20040;-69
2023/09/01 01:34:53;;;;;;;7.70;5.47;;;11.30;99.90;;;;;;5054352;28;20033;-69
2023/09/01 01:37:31;;;;;;;7.63;5.47;;;11.30;99.90;;;;;;4993963;28;20166;-69
2023/09/01 01:39:59;;;;;;;8.63;4.90;;;11.30;99.90;;;;;;5032798;28;20068;-69
2023/09/01 01:42:29;;;;;;;6.93;5.45;;;11.30;99.90;;;;;;5037725;28;20045;-69
2023/09/01 01:44:58;;;;;;;7.55;5.95;;;11.20;99.90;;;;;;5054961;28;20095;-69
2023/09/01 01:47:23;;;;;;;8.32;5.63;;;11.20;99.90;;;;;;5053968;28;20490;-69
2023/09/01 01:49:49;;;;;;;7.47;4.68;;;11.20;99.90;;;;;;5037096;28;20040;-69
2023/09/01 01:52:15;;;;;;;7.57;4.60;;;11.10;99.90;;;;;;5020430;28;20033;-69
2023/09/01 01:54:40;;;;;;;7.88;4.88;;;11.10;99.90;;;;;;5036340;28;20508;-69
2023/09/01 01:57:10;;;;;;;8.13;5.32;;;11.20;99.90;;;;;;5036617;28;20045;-69
2023/09/01 01:59:36;;;;;;;6.38;4.45;;;11.10;99.90;;;;;;5054445;28;20033;-69
2023/09/01 02:02:05;;;;;;;8.60;4.88;;;11.10;99.90;;;;;;5036447;28;20371;-69
2023/09/01 02:04:31;;;;;;;7.57;6.28;;;11.10;99.90;;;;;;5020645;28;20049;-68
2023/09/01 02:06:57;;;;;;;7.70;4.35;;;11.10;99.90;;;;;;5055002;28;20037;-69
2023/09/01 02:09:23;;;;;;;8.55;5.28;;;11.10;99.90;;;;;;5036117;28;20473;-68
2023/09/01 02:11:49;;;;;;;8.95;5.82;;;11.00;99.90;;;;;;5036944;28;20481;-69
2023/09/01 02:14:14;;;;;;;7.60;4.97;;;11.00;99.90;;;;;;5035752;28;20036;-69
2023/09/01 02:16:40;;;;;;;7.82;5.97;;;10.90;99.90;;;;;;5036644;28;20092;-69
2023/09/01 02:19:09;;;;;;;6.60;4.70;;;11.00;99.90;;;;;;5036384;28;20040;-69
2023/09/01 02:21:35;;;;;;;9.23;6.10;;;10.90;99.90;;;;;;5036065;28;20045;-69
2023/09/01 02:24:00;;;;;;;7.25;4.68;;;10.90;99.90;;;;;;5037225;28;20041;-68
2023/09/01 02:26:26;;;;;;;7.53;4.47;;;10.90;99.90;;;;;;5054159;28;20457;-68
2023/09/01 02:28:52;;;;;;;6.68;4.57;;;10.80;99.90;;;;;;5035741;28;20049;-69
2023/09/01 02:31:18;;;;;;;7.80;4.57;;;10.90;99.90;;;;;;5036117;28;20032;-69
2023/09/01 02:33:43;;;;;;;7.13;4.43;;;10.90;99.90;;;;;;5054481;28;20072;-69
2023/09/01 02:36:29;;;;;;;7.00;4.85;;;10.80;99.90;;;;;;5035750;28;20122;-69
2023/09/01 02:38:56;;;;;;;6.40;4.55;;;10.80;99.90;;;;;;5036719;28;20033;-69
2023/09/01 02:41:22;;;;;;;6.40;4.00;;;10.80;99.90;;;;;;5036145;28;20057;-69
2023/09/01 02:43:48;;;;;;;6.40;4.25;;;10.80;99.90;;;;;;5053134;28;20052;-69
2023/09/01 02:46:14;;;;;;;7.07;4.78;;;10.80;99.90;;;;;;5041399;28;20390;-69
2023/09/01 02:48:40;;;;;;;6.43;3.90;;;10.80;99.90;;;;;;5036074;28;20482;-69
2023/09/01 02:51:06;;;;;;;8.82;3.85;;;10.80;99.90;;;;;;5053733;28;20047;-69
2023/09/01 02:53:33;;;;;;;7.50;3.90;;;10.70;99.90;;;;;;5053284;28;20128;-68
2023/09/01 02:55:58;;;;;;;6.45;3.92;;;10.70;99.90;;;;;;5053224;28;20077;-69
2023/09/01 02:58:24;;;;;;;6.88;4.82;;;10.70;99.90;;;;;;5051614;28;20099;-69
2023/09/01 03:00:51;;;;;;;5.85;3.45;;;10.70;99.90;;;;;;5022222;28;20498;-69
2023/09/01 03:03:19;;;;;;;6.00;4.07;;;10.60;99.90;;;;;;5054162;28;20041;-69
2023/09/01 03:05:46;;;;;;;7.07;4.43;;;10.70;99.90;;;;;;5053002;28;20040;-69
2023/09/01 03:08:33;;;;;;;6.43;4.65;;;10.60;99.90;;;;;;5035719;28;20438;-69
2023/09/01 03:10:59;;;;;;;6.22;4.30;;;10.70;99.90;;;;;;5035021;28;20033;-68
2023/09/01 03:13:25;;;;;;;6.95;3.95;;;10.60;99.90;;;;;;5051926;28;20041;-68
2023/09/01 03:15:54;;;;;;;8.55;4.68;;;10.70;99.90;;;;;;5035391;28;20043;-69
2023/09/01 03:18:20;;;;;;;7.28;4.53;;;10.60;99.90;;;;;;5051862;28;20034;-69
2023/09/01 03:20:46;;;;;;;6.22;4.32;;;10.70;99.90;;;;;;5035476;28;20505;-69
2023/09/01 03:23:12;;;;;;;7.50;3.85;;;10.70;99.90;;;;;;5019067;28;20453;-68
2023/09/01 03:25:38;;;;;;;6.18;4.03;;;10.70;99.90;;;;;;5034927;28;20072;-69
2023/09/01 03:28:03;;;;;;;7.63;4.68;;;10.60;99.90;;;;;;5053454;28;20540;-67
2023/09/01 03:30:29;;;;;;;8.35;4.55;;;10.70;99.90;;;;;;5051725;28;20037;-67
2023/09/01 03:32:55;;;;;;;7.57;4.95;;;10.60;99.90;;;;;;5035151;28;20124;-67
2023/09/01 03:35:21;;;;;;;8.80;4.82;;;10.60;99.90;;;;;;5052914;28;20463;-66
2023/09/01 03:37:46;;;;;;;6.90;4.93;;;10.60;99.90;;;;;;5053084;28;20355;-67
2023/09/01 03:40:12;;;;;;;6.47;4.07;;;10.60;99.90;;;;;;5034094;28;20037;-67
2023/09/01 03:42:39;;;;;;;6.65;3.85;;;10.50;99.90;;;;;;5052910;28;20080;-67
2023/09/01 03:45:05;;;;;;;7.38;4.80;;;10.50;99.90;;;;;;5052122;28;20044;-67
2023/09/01 03:47:31;;;;;;;6.75;4.35;;;10.50;99.90;;;;;;5051876;28;20080;-67
2023/09/01 03:49:57;;;;;;;7.45;5.00;;;10.50;99.90;;;;;;5018776;28;20041;-67
2023/09/01 03:52:23;;;;;;;7.85;4.68;;;10.50;99.90;;;;;;5035224;28;20040;-67
2023/09/01 03:54:49;;;;;;;7.03;3.97;;;10.60;99.90;;;;;;5052077;28;20036;-67
2023/09/01 03:57:15;;;;;;;8.88;4.38;;;10.60;99.90;;;;;;5052298;28;20033;-67
2023/09/01 03:59:42;;;;;;;6.47;3.95;;;10.60;99.90;;;;;;5052183;28;20051;-66
2023/09/01 04:02:08;;;;;;;6.00;3.53;;;10.50;99.90;;;;;;5034687;28;20049;-67
2023/09/01 04:04:34;;;;;;;5.47;3.35;;;10.50;99.90;;;;;;5052738;28;20438;-66
2023/09/01 04:06:59;;;;;;;7.18;3.90;;;10.50;99.90;;;;;;5034217;28;20045;-67
2023/09/01 04:09:25;;;;;;;5.95;3.67;;;10.40;99.90;;;;;;5034291;28;20036;-67
2023/09/01 04:11:51;;;;;;;5.85;3.33;;;10.40;99.90;;;;;;5034038;28;20128;-67
2023/09/01 04:14:16;;;;;;;6.40;3.47;;;10.40;99.90;;;;;;5051674;28;20044;-67
2023/09/01 04:16:42;;;;;;;6.47;3.42;;;10.40;99.90;;;;;;5052992;28;20036;-67
2023/09/01 04:19:08;;;;;;;5.72;3.63;;;10.40;99.90;;;;;;5034248;28;20040;-66
2023/09/01 04:21:34;;;;;;;7.72;4.03;;;10.40;99.90;;;;;;5033618;28;20090;-67
2023/09/01 04:23:59;;;;;;;6.30;4.20;;;10.30;99.90;;;;;;5034620;28;20037;-67
2023/09/01 04:26:25;;;;;;;10.43;4.28;;;10.40;99.90;;;;;;5052198;28;20565;-67
2023/09/01 04:28:51;;;;;;;7.63;4.93;;;10.30;99.90;;;;;;5033317;28;20044;-67
2023/09/01 04:31:29;;;;;;;6.30;4.38;;;10.30;99.90;;;;;;5052489;28;20036;-67
2023/09/01 04:33:56;;;;;;;6.50;4.65;;;10.30;99.90;;;;;;5018515;28;20037;-67
2023/09/01 04:36:22;;;;;;;7.43;4.10;;;10.30;99.90;;;;;;5033719;28;20049;-67
2023/09/01 04:38:49;;;;;;;6.05;3.88;;;10.30;99.90;;;;;;5051899;28;20056;-67
2023/09/01 04:41:14;;;;;;;6.95;3.90;;;10.30;99.90;;;;;;5051866;28;20098;-67
2023/09/01 04:43:41;;;;;;;7.90;4.45;;;10.30;99.90;;;;;;5033621;28;20116;-66
2023/09/01 04:46:06;;;;;;;7.95;4.43;;;10.30;99.90;;;;;;5051720;28;20060;-66
2023/09/01 04:48:34;;;;;;;6.40;4.00;;;10.30;99.90;;;;;;5033983;28;20041;-66
2023/09/01 04:51:02;;;;;;;6.45;3.75;;;10.30;99.90;;;;;;5033944;28;20116;-66
2023/09/01 04:53:31;;;;;;;7.38;4.40;;;10.30;99.90;;;;;;5033891;28;20394;-67
2023/09/01 04:55:57;;;;;;;7.82;4.47;;;10.30;99.90;;;;;;5033289;28;20037;-66
2023/09/01 04:58:23;;;;;;;7.15;4.45;;;10.30;99.90;;;;;;5034619;28;20470;-67
2023/09/01 05:00:52;;;;;;;7.68;4.30;;;10.30;99.90;;;;;;5052463;28;20135;-66
2023/09/01 05:03:18;;;;;;;7.53;4.78;;;10.30;99.90;;;;;;5017126;28;20037;-66
2023/09/01 05:05:44;;;;;;;7.95;4.22;;;10.30;99.90;;;;;;5033928;28;20513;-66
2023/09/01 05:08:09;;;;;;;7.18;3.83;;;10.20;99.90;;;;;;5033436;28;20059;-66
2023/09/01 05:10:35;;;;;;;6.80;3.95;;;10.30;99.90;;;;;;5033155;28;20044;-66
2023/09/01 05:13:01;;;;;;;7.18;4.93;;;10.30;99.90;;;;;;5034475;28;20043;-66
2023/09/01 05:15:26;;;;;;;8.38;5.00;;;10.30;99.90;;;;;;5033957;28;20048;-66
2023/09/01 05:17:52;;;;;;;6.57;4.20;;;10.40;99.90;;;;;;5051302;28;20045;-66
2023/09/01 05:20:18;;;;;;;7.40;4.78;;;10.30;99.90;;;;;;5051435;28;20045;-66
2023/09/01 05:22:43;;;;;;;6.18;4.07;;;10.30;99.90;;;;;;5033813;28;20095;-66
2023/09/01 05:25:10;;;;;;;7.75;5.00;;;10.40;99.90;;;;;;5050963;28;20037;-66
2023/09/01 05:27:36;;;;;;;8.45;4.38;;;10.40;99.90;;;;;;5033568;28;20068;-66
2023/09/01 05:30:02;;;;;;;6.03;4.28;;;10.40;99.90;;;;;;5034735;28;20037;-66
2023/09/01 05:32:29;;;;;;;6.95;4.70;;;10.50;99.90;;;;;;5016293;28;20037;-66
2023/09/01 05:34:55;;;;;;;6.78;4.10;;;10.50;99.90;;;;;;5017453;28;20501;-66
2023/09/01 05:37:21;;;;;;;10.07;5.88;;;10.60;99.90;;;;;;5051170;28;20045;-66
2023/09/01 05:39:46;;;;;;;7.50;5.32;;;10.60;99.90;;;;;;5050755;28;20044;-66
2023/09/01 05:42:14;;;;;;;6.07;4.65;;;10.70;99.90;;;;;;5052101;28;20037;-67
2023/09/01 05:44:40;;;;;;;7.25;5.55;;;10.80;99.90;;;;;;5051626;28;20048;-68
2023/09/01 05:47:06;;;;;;;8.70;6.10;;;10.90;99.90;;;;;;5050141;28;20729;-68
2023/09/01 05:49:33;;;;;;;8.52;5.82;;;11.00;99.90;;;;;;5033529;28;20052;-69
2023/09/01 05:52:03;;;;;;;10.23;6.30;;;11.10;99.90;;;;;;5033866;28;20040;-69
2023/09/01 05:54:28;;;;;;;8.60;7.05;;;11.00;99.90;;;;;;5052315;28;20049;-68
2023/09/01 05:56:54;;;;;;;6.35;5.50;;;11.20;99.90;;;;;;5037795;28;20064;-68
2023/09/01 05:59:20;;;;;;;10.90;7.15;;;11.30;99.90;;;;;;5054470;28;20040;-68
2023/09/01 06:01:46;;;;;;;7.53;6.65;;;11.40;99.90;;;;;;5055169;28;20534;-68
2023/09/01 06:04:13;;;;;;;10.48;8.30;;;11.40;99.90;;;;;;5036974;28;20036;-68
2023/09/01 06:06:38;;;;;;;10.20;9.27;;;11.50;99.90;;;;;;5019562;28;20084;-68
2023/09/01 06:09:05;;;;;;;8.73;7.93;;;11.50;99.90;;;;;;5055161;28;20068;-68
2023/09/01 06:11:32;;;;;;;7.72;6.82;;;11.60;99.90;;;;;;5054584;28;20417;-68
2023/09/01 06:13:58;;;;;;;20.45;19.08;;;11.70;99.90;;;;;;5019813;28;20041;-66
2023/09/01 06:16:28;;;;;;;73.00;69.95;;;11.80;99.90;;;;;;5037097;28;20037;-66
2023/09/01 06:18:54;;;;;;;13.30;12.30;;;11.90;99.90;;;;;;5054461;28;20033;-66
2023/09/01 06:21:20;;;;;;;13.43;12.43;;;12.00;99.90;;;;;;5035052;28;20033;-66
2023/09/01 06:23:47;;;;;;;66.65;63.72;;;12.00;99.90;;;;;;5036902;28;20052;-66
2023/09/01 06:26:14;;;;;;;98.78;94.90;;;12.00;99.90;;;;;;5012395;28;20048;-66
2023/09/01 06:28:40;;;;;;;8.80;8.00;;;12.20;99.90;;;;;;5016512;28;20528;-66
2023/09/01 06:31:09;;;;;;;29.00;27.30;;;12.30;99.90;;;;;;5017040;28;20064;-66
2023/09/01 06:33:40;;;;;;;16.58;15.48;;;12.30;99.90;;;;;;5029096;28;20044;-66
2023/09/01 06:36:06;;;;;;;22.10;20.80;;;12.40;99.90;;;;;;5008423;28;20084;-66
2023/09/01 06:38:31;;;;;;;50.08;47.97;;;12.50;99.90;;;;;;5033593;28;20667;-66
2023/09/01 06:40:57;;;;;;;35.63;33.95;;;12.40;99.90;;;;;;5051871;28;20059;-66
2023/09/01 06:43:23;;;;;;;25.30;23.65;;;12.60;99.90;;;;;;5051053;28;20462;-66
2023/09/01 06:45:49;;;;;;;11.75;10.70;;;12.60;99.90;;;;;;5029886;28;20050;-66
2023/09/01 06:48:14;;;;;;;29.73;28.30;;;12.90;99.90;;;;;;5030523;28;20104;-66
2023/09/01 06:50:40;;;;;;;13.45;12.25;;;13.00;99.90;;;;;;5029390;28;20045;-66
2023/09/01 06:53:06;;;;;;;47.20;45.20;;;13.00;99.90;;;;;;5028784;28;20046;-65
2023/09/01 06:55:32;;;;;;;52.70;50.38;;;13.20;99.90;;;;;;5028907;28;20049;-65
2023/09/01 06:57:58;;;;;;;55.97;53.45;;;13.10;99.90;;;;;;5030086;28;20056;-66
2023/09/01 07:00:23;;;;;;;70.10;67.20;;;13.30;99.90;;;;;;5029563;28;20045;-66
2023/09/01 07:02:49;;;;;;;68.20;64.88;;;13.40;99.90;;;;;;5026016;28;20112;-66
2023/09/01 07:05:16;;;;;;;56.13;53.47;;;13.30;99.90;;;;;;5010726;28;20048;-66
2023/09/01 07:07:42;;;;;;;66.57;63.97;;;13.60;99.90;;;;;;5026672;28;20091;-66
2023/09/01 07:10:08;;;;;;;68.53;65.35;;;13.50;99.90;;;;;;5011873;28;20046;-66
2023/09/01 07:12:34;;;;;;;93.90;90.07;;;13.50;99.90;;;;;;5024452;28;20042;-66
2023/09/01 07:15:00;;;;;;;65.28;62.60;;;13.70;99.90;;;;;;5029735;28;20061;-66
2023/09/01 07:17:26;;;;;;;80.07;76.85;;;13.80;99.90;;;;;;5028725;28;20041;-66
2023/09/01 07:19:52;;;;;;;111.07;106.85;;;14.00;99.90;;;;;;5029571;28;20098;-66
2023/09/01 07:22:18;;;;;;;99.70;95.90;;;13.90;99.90;;;;;;5029617;28;20567;-66
2023/09/01 07:24:43;;;;;;;63.00;60.45;;;14.20;99.90;;;;;;5027859;28;20045;-66
2023/09/01 07:27:09;;;;;;;85.50;82.05;;;14.30;99.90;;;;;;5028598;28;20046;-66
2023/09/01 07:29:35;;;;;;;100.88;97.05;;;14.50;99.90;;;;;;5029072;28;20046;-66
2023/09/01 07:32:01;;;;;;;35.85;34.17;;;14.40;99.90;;;;;;5029725;28;20081;-67
2023/09/01 07:34:27;;;;;;;15.73;14.57;;;14.60;99.90;;;;;;5030207;28;20410;-66
2023/09/01 07:36:52;;;;;;;10.82;9.93;;;14.70;99.90;;;;;;5012553;28;20041;-67
2023/09/01 07:39:18;;;;;;;11.98;10.88;;;14.70;99.90;;;;;;5027446;28;20056;-66
2023/09/01 07:41:44;;;;;;;12.57;11.68;;;14.80;99.90;;;;;;5029406;28;20478;-66
2023/09/01 07:44:10;;;;;;;10.30;9.40;;;14.70;99.90;;;;;;5028434;28;20049;-66
2023/09/01 07:46:35;;;;;;;9.77;8.93;;;14.70;99.90;;;;;;5027464;28;20061;-66
2023/09/01 07:49:02;;;;;;;14.13;13.13;;;14.70;99.90;;;;;;5027338;28;20100;-61
2023/09/01 07:51:28;;;;;;;8.15;7.35;;;14.90;99.90;;;;;;5027053;28;20092;-61
2023/09/01 07:53:56;;;;;;;9.20;8.25;;;15.00;99.90;;;;;;5028447;28;20061;-61
2023/09/01 07:56:22;;;;;;;9.55;8.75;;;15.00;99.90;;;;;;5028112;28;20049;-61
2023/09/01 07:58:48;;;;;;;10.70;9.68;;;15.10;99.90;;;;;;5028864;28;20050;-61
2023/09/01 08:01:13;;;;;;;14.38;13.48;;;15.00;99.90;;;;;;5020903;28;20081;-62
2023/09/01 08:03:39;;;;;;;12.48;10.70;;;15.20;99.90;;;;;;5015864;28;20042;-61
2023/09/01 08:06:05;;;;;;;12.73;11.70;;;15.20;99.90;;;;;;5004090;28;20510;-61
2023/09/01 08:08:31;;;;;;;13.95;13.05;;;15.20;99.90;;;;;;5018549;28;20037;-66
2023/09/01 08:10:56;;;;;;;11.32;10.32;;;15.40;99.90;;;;;;5012093;28;20132;-66
2023/09/01 08:13:22;;;;;;;12.05;11.15;;;15.30;99.90;;;;;;5027655;28;20037;-67
2023/09/01 08:15:49;;;;;;;28.65;26.77;;;15.50;99.90;;;;;;5029333;28;20116;-61
2023/09/01 08:18:15;;;;;;;22.10;20.83;;;15.40;99.90;;;;;;5026956;28;20033;-61
2023/09/01 08:20:42;;;;;;;23.10;21.70;;;15.60;99.90;;;;;;5026919;28;20163;-61
2023/09/01 08:23:09;;;;;;;23.27;21.95;;;15.70;99.90;;;;;;5027831;28;20124;-63
2023/09/01 08:25:35;;;;;;;18.60;17.30;;;15.70;99.90;;;;;;5027572;28;20532;-61
2023/09/01 08:28:03;;;;;;;9.55;8.68;;;15.70;99.90;;;;;;5028521;28;20576;-61
2023/09/01 08:30:28;;;;;;;13.30;12.18;;;15.90;99.90;;;;;;5018244;28;20449;-61
2023/09/01 08:32:54;;;;;;;11.30;10.18;;;16.10;99.90;;;;;;5013013;28;20033;-61
2023/09/01 08:35:20;;;;;;;15.23;14.20;;;16.00;99.90;;;;;;5026750;28;20080;-61
2023/09/01 08:37:46;;;;;;;12.02;11.23;;;16.00;99.90;;;;;;5027211;28;20041;-61
2023/09/01 08:40:11;;;;;;;11.52;10.70;;;15.90;99.90;;;;;;5027391;28;20057;-61
2023/09/01 08:42:49;;;;;;;17.77;16.38;;;16.00;99.90;;;;;;5027033;28;20045;-61
2023/09/01 08:45:17;;;;;;;9.85;8.90;;;16.20;99.90;;;;;;5026681;28;20455;-61
2023/09/01 08:47:50;;;;;;;11.27;6.15;;;16.20;99.90;;;;;;5030351;28;20509;-61
2023/09/01 08:50:18;;;;;;;7.85;5.47;;;16.20;99.90;;;;;;5028412;28;20124;-61
2023/09/01 08:52:45;;;;;;;6.90;4.50;;;16.40;99.90;;;;;;5026314;28;20049;-62
2023/09/01 08:55:16;;;;;;;8.82;3.95;;;16.10;99.90;;;;;;5017388;28;20093;-67
2023/09/01 08:57:42;;;;;;;6.88;3.50;;;16.20;99.90;;;;;;5013878;28;20041;-67
2023/09/01 09:00:09;;;;;;;4.05;2.83;;;16.30;99.90;;;;;;5044674;28;20566;-65
2023/09/01 09:02:42;;;;;;;29.15;27.75;;;16.40;99.90;;;;;;5030135;28;20055;-63
2023/09/01 09:05:13;;;;;;;32.88;31.38;;;16.40;99.90;;;;;;5014640;28;20041;-68
2023/09/01 09:07:39;;;;;;;22.55;21.25;;;16.40;99.90;;;;;;5014633;28;20401;-64
2023/09/01 09:10:06;;;;;;;29.50;27.98;;;16.40;99.90;;;;;;5013773;28;20132;-66
2023/09/01 09:12:41;;;;;;;6.00;5.40;;;16.50;99.90;;;;;;5032236;28;20037;-65
2023/09/01 09:15:07;;;;;;;7.15;6.55;;;16.60;99.90;;;;;;5014831;28;20033;-68
2023/09/01 09:17:48;;;;;;;7.43;3.83;;;16.60;99.90;;;;;;5016672;28;20091;-67
2023/09/01 09:20:18;;;;;;;6.47;5.72;;;16.60;99.90;;;;;;5033760;28;20037;-66
2023/09/01 09:22:53;;;;;;;6.15;3.08;;;16.50;99.90;;;;;;5017111;28;20049;-67
2023/09/01 09:25:27;;;;;;;7.57;6.88;;;16.50;99.90;;;;;;5032440;28;20045;-67
2023/09/01 09:27:53;;;;;;;6.30;4.30;;;16.50;99.90;;;;;;5033858;28;20059;-67
2023/09/01 09:30:20;;;;;;;5.15;3.85;;;16.50;99.90;;;;;;5035864;28;20435;-65
2023/09/01 09:32:48;;;;;;;91.82;88.32;;;16.50;99.90;;;;;;5037237;28;20033;-64
2023/09/01 09:35:15;;;;;;;59.47;57.13;;;16.60;99.90;;;;;;5037044;28;20045;-64
2023/09/01 09:37:41;;;;;;;46.85;44.40;;;16.50;99.90;;;;;;5037121;28;20116;-67
2023/09/01 09:40:13;;;;;;;7.10;6.35;;;16.50;99.90;;;;;;5037402;28;20062;-67
2023/09/01 09:42:41;;;;;;;17.33;16.27;;;16.60;99.90;;;;;;5036080;28;20043;-66
2023/09/01 09:45:22;;;;;;;4.95;3.25;;;16.70;99.90;;;;;;5036674;28;20076;-65
2023/09/01 09:47:49;;;;;;;9.00;7.10;;;16.60;99.90;;;;;;5053180;28;20406;-66
2023/09/01 09:50:17;;;;;;;6.82;3.50;;;16.70;99.90;;;;;;5055222;28;20171;-66
2023/09/01 09:52:48;;;;;;;9.32;8.43;;;16.70;99.90;;;;;;5053670;28;20455;-66
2023/09/01 09:55:29;;;;;;;8.73;4.13;;;16.80;99.90;;;;;;5038426;28;20045;-66
2023/09/01 09:58:06;;;;;;;6.65;5.18;;;16.70;99.90;;;;;;5037710;28;20112;-65
2023/09/01 10:00:44;;;;;;;5.38;3.35;;;16.80;99.90;;;;;;5045435;28;20048;-65
2023/09/01 10:03:11;;;;;;;6.35;3.05;;;16.80;99.90;;;;;;5054551;28;20528;-64
2023/09/01 10:05:38;;;;;;;6.93;6.05;;;17.00;99.90;;;;;;5027357;28;20099;-64
2023/09/01 10:08:05;;;;;;;8.00;4.65;;;17.00;99.90;;;;;;5025535;28;20132;-65
2023/09/01 10:10:35;;;;;;;8.57;7.32;;;17.10;99.90;;;;;;5017112;28;20048;-65
2023/09/01 10:13:03;;;;;;;4.07;2.45;;;17.20;99.90;;;;;;5050930;28;20120;-67
2023/09/01 10:15:31;;;;;;;5.45;2.05;;;17.10;99.90;;;;;;5037575;28;20460;-65
2023/09/01 10:18:03;;;;;;;7.10;2.80;;;17.20;99.90;;;;;;5014328;28;20390;-65
2023/09/01 10:20:34;;;;;;;4.72;2.67;;;17.20;99.90;;;;;;5017706;28;20092;-64
2023/09/01 10:23:05;;;;;;;4.75;1.90;;;17.20;99.90;;;;;;5045643;28;20045;-64
2023/09/01 10:25:31;;;;;;;4.03;1.70;;;17.10;99.90;;;;;;5050419;28;20138;-64
2023/09/01 10:28:12;;;;;;;4.78;1.58;;;17.10;99.90;;;;;;5034444;28;20049;-67
2023/09/01 10:30:43;;;;;;;4.47;1.80;;;17.20;99.90;;;;;;5033409;28;20044;-67
2023/09/01 10:33:15;;;;;;;3.58;1.77;;;17.20;99.90;;;;;;5048798;28;20043;-66
2023/09/01 10:35:44;;;;;;;4.50;1.52;;;17.10;99.90;;;;;;5033153;28;20512;-66
2023/09/01 10:38:13;;;;;;;3.35;1.50;;;17.40;99.90;;;;;;5045501;28;20044;-67
2023/09/01 10:40:49;;;;;;;4.63;1.95;;;17.40;99.90;;;;;;5049415;28;20047;-67
2023/09/01 10:43:44;;;;;;;5.63;2.03;;;17.50;99.90;;;;;;5048262;28;20489;-67
2023/09/01 10:46:16;;;;;;;4.20;2.17;;;17.40;99.90;;;;;;5019147;28;20402;-65
2023/09/01 10:48:58;;;;;;;3.55;1.65;;;17.30;99.90;;;;;;5032577;28;20068;-65
2023/09/01 10:51:28;;;;;;;5.60;1.83;;;17.40;99.90;;;;;;5016273;28;20045;-65
2023/09/01 10:54:04;;;;;;;4.18;1.63;;;17.40;99.90;;;;;;5033242;28;20386;-65
2023/09/01 10:56:33;;;;;;;4.88;2.05;;;17.40;99.90;;;;;;5015237;28;20372;-65
2023/09/01 10:58:59;;;;;;;5.57;1.73;;;17.40;99.90;;;;;;5016256;28;20054;-65
2023/09/01 11:01:41;;;;;;;6.93;2.05;;;17.40;99.90;;;;;;5033680;28;20049;-66
2023/09/01 11:04:16;;;;;;;9.27;2.00;;;17.70;99.90;;;;;;4999837;28;20363;-64
2023/09/01 11:06:57;;;;;;;5.82;2.08;;;17.80;99.90;;;;;;5033728;28;20041;-65
2023/09/01 11:09:33;;;;;;;5.07;2.60;;;18.10;99.90;;;;;;5015306;28;20088;-65
2023/09/01 11:11:59;;;;;;;2.67;1.20;;;17.90;99.90;;;;;;5015960;28;20083;-65
2023/09/01 11:14:25;;;;;;;6.32;1.92;;;18.00;99.90;;;;;;5015794;28;20047;-64
2023/09/01 11:16:50;;;;;;;3.08;1.30;;;17.90;99.90;;;;;;5015014;28;20398;-65
2023/09/01 11:19:16;;;;;;;6.50;1.80;;;17.80;99.90;;;;;;5016005;28;20090;-64
2023/09/01 11:21:42;;;;;;;4.55;2.20;;;17.90;99.90;;;;;;5015693;28;20505;-65
2023/09/01 11:24:08;;;;;;;4.55;1.92;;;18.00;99.90;;;;;;5032389;28;20045;-65
2023/09/01 11:26:37;;;;;;;5.90;1.58;;;18.00;99.90;;;;;;5015772;28;20037;-64
2023/09/01 11:29:09;;;;;;;4.10;1.70;;;18.20;99.90;;;;;;5015905;28;20056;-64
2023/09/01 11:31:42;;;;;;;4.85;1.88;;;18.20;99.90;;;;;;5014747;28;20116;-65
2023/09/01 11:34:09;;;;;;;5.63;2.20;;;18.30;99.90;;;;;;5015622;28;20033;-65
2023/09/01 11:36:43;;;;;;;4.70;1.90;;;18.50;99.90;;;;;;5015344;28;20091;-65
2023/09/01 11:39:09;;;;;;;3.55;1.42;;;18.40;99.90;;;;;;5014977;28;20494;-65
2023/09/01 11:41:35;;;;;;;4.35;1.90;;;18.40;99.90;;;;;;4998915;28;20072;-61
2023/09/01 11:44:02;;;;;;;6.97;1.70;;;18.40;99.90;;;;;;4998433;28;20045;-62
2023/09/01 11:46:32;;;;;;;5.30;1.60;;;18.50;99.90;;;;;;5032427;28;20414;-62
2023/09/01 11:48:58;;;;;;;5.72;1.88;;;18.60;99.90;;;;;;5032946;28;20056;-62
2023/09/01 11:51:36;;;;;;;6.85;2.13;;;18.50;99.90;;;;;;5013684;28;20116;-62
2023/09/01 11:54:02;;;;;;;4.13;1.58;;;18.30;99.90;;;;;;5033171;28;20050;-62
2023/09/01 11:56:28;;;;;;;3.97;1.48;;;18.80;99.90;;;;;;5014827;28;20123;-62
2023/09/01 11:58:58;;;;;;;3.92;1.83;;;18.40;99.90;;;;;;5014622;28;20498;-62
2023/09/01 12:01:27;;;;;;;4.85;1.48;;;18.70;99.90;;;;;;5015082;28;20033;-62
2023/09/01 12:03:54;;;;;;;4.18;1.60;;;18.70;99.90;;;;;;5032745;28;20564;-62
2023/09/01 12:06:22;;;;;;;3.97;1.58;;;18.60;99.90;;;;;;5014000;28;20049;-63
2023/09/01 12:08:49;;;;;;;5.45;1.85;;;18.70;99.90;;;;;;5014670;28;20052;-63
2023/09/01 12:11:16;;;;;;;5.45;1.80;;;18.70;99.90;;;;;;5032303;28;20041;-62
2023/09/01 12:13:45;;;;;;;9.38;1.85;;;18.70;99.90;;;;;;5013946;28;20083;-63
2023/09/01 12:16:22;;;;;;;6.57;2.10;;;18.80;99.90;;;;;;5014563;28;20490;-63
2023/09/01 12:18:49;;;;;;;5.10;1.85;;;18.80;99.90;;;;;;5032334;28;20498;-63
2023/09/01 12:21:15;;;;;;;7.93;2.55;;;19.30;99.90;;;;;;5013805;28;20041;-63
2023/09/01 12:23:43;;;;;;;6.93;2.60;;;19.20;99.90;;;;;;5032234;28;20459;-63
2023/09/01 12:26:10;;;;;;;4.55;2.40;;;19.30;99.90;;;;;;5013661;28;20045;-63
2023/09/01 12:28:37;;;;;;;6.18;2.97;;;19.30;99.90;;;;;;5014586;28;20033;-63
2023/09/01 12:31:04;;;;;;;8.73;2.70;;;19.70;99.90;;;;;;5014789;28;20383;-63
2023/09/01 12:33:30;;;;;;;5.47;2.10;;;19.60;99.90;;;;;;5013704;28;20041;-63
2023/09/01 12:35:57;;;;;;;6.72;1.65;;;19.70;99.90;;;;;;5032575;28;20038;-63
2023/09/01 12:38:23;;;;;;;5.93;2.15;;;19.60;99.90;;;;;;5014220;28;20511;-63
2023/09/01 12:40:49;;;;;;;5.47;1.98;;;19.60;99.90;;;;;;5013529;28;20056;-63
2023/09/01 12:43:15;;;;;;;6.40;1.90;;;19.60;99.90;;;;;;4998237;28;20045;-63
2023/09/01 12:45:42;;;;;;;6.90;2.17;;;19.70;99.90;;;;;;5014136;28;20107;-63